sensor_id;sensor_type;location;lat;lon;timestamp;temperature;humidity
66057;DHT22;52842;52.666;5.202;2023-01-24T09:17:05;18.80;52.20
66057;DHT22;52842;52.666;5.202;2023-01-24T09:19:31;18.80;52.70
66057;DHT22;52842;52.666;5.202;2023-01-24T09:21:58;18.70;52.90
66057;DHT22;52842;52.666;5.202;2023-01-24T09:24:25;18.60;53.10
66057;DHT22;52842;52.666;5.202;2023-01-24T09:26:51;18.60;53.20
66057;DHT22;52842;52.666;5.202;2023-01-24T09:29:18;18.50;53.40
66057;DHT22;52842;52.666;5.202;2023-01-24T09:31:46;18.40;53.50
66057;DHT22;52842;52.666;5.202;2023-01-24T09:34:14;18.40;53.60
66057;DHT22;52842;52.666;5.202;2023-01-24T09:36:40;18.30;53.80
66057;DHT22;52842;52.666;5.202;2023-01-24T09:39:07;18.30;53.80
66057;DHT22;52842;52.666;5.202;2023-01-24T09:41:37;18.20;53.90
66057;DHT22;52842;52.666;5.202;2023-01-24T09:44:08;18.10;53.90
66057;DHT22;52842;52.666;5.202;2023-01-24T09:46:38;18.10;54.10
66057;DHT22;52842;52.666;5.202;2023-01-24T09:49:12;18.00;54.00
66057;DHT22;52842;52.666;5.202;2023-01-24T09:51:43;18.00;54.20
66057;DHT22;52842;52.666;5.202;2023-01-24T09:54:13;17.90;54.20
66057;DHT22;52842;52.666;5.202;2023-01-24T09:56:41;17.90;54.30
66057;DHT22;52842;52.666;5.202;2023-01-24T10:01:53;17.80;54.50
66057;DHT22;52842;52.666;5.202;2023-01-24T10:04:20;17.70;54.50
66057;DHT22;52842;52.666;5.202;2023-01-24T10:06:53;17.70;54.80
66057;DHT22;52842;52.666;5.202;2023-01-24T10:09:22;17.60;55.10
66057;DHT22;52842;52.666;5.202;2023-01-24T10:11:54;17.60;55.20
66057;DHT22;52842;52.666;5.202;2023-01-24T10:14:27;17.50;55.40
66057;DHT22;52842;52.666;5.202;2023-01-24T10:17:11;17.50;55.50
66057;DHT22;52842;52.666;5.202;2023-01-24T10:22:37;17.40;55.70
66057;DHT22;52842;52.666;5.202;2023-01-24T10:25:10;17.40;55.90
66057;DHT22;52842;52.666;5.202;2023-01-24T10:27:39;17.40;56.00
66057;DHT22;52842;52.666;5.202;2023-01-24T10:30:12;17.30;56.20
66057;DHT22;52842;52.666;5.202;2023-01-24T10:32:39;17.30;56.20
66057;DHT22;52842;52.666;5.202;2023-01-24T10:35:11;17.30;56.30
66057;DHT22;52842;52.666;5.202;2023-01-24T10:37:43;17.20;56.40
66057;DHT22;52842;52.666;5.202;2023-01-24T10:40:11;17.20;56.50
66057;DHT22;52842;52.666;5.202;2023-01-24T10:42:39;17.20;56.60
66057;DHT22;52842;52.666;5.202;2023-01-24T10:45:10;17.10;56.50
66057;DHT22;52842;52.666;5.202;2023-01-24T10:47:46;17.10;56.60
66057;DHT22;52842;52.666;5.202;2023-01-24T10:50:15;17.10;56.70
66057;DHT22;52842;52.666;5.202;2023-01-24T10:52:44;17.00;56.80
66057;DHT22;52842;52.666;5.202;2023-01-24T10:55:25;17.00;56.90
66057;DHT22;52842;52.666;5.202;2023-01-24T10:57:52;16.90;56.90
66057;DHT22;52842;52.666;5.202;2023-01-24T11:00:27;16.90;57.00
66057;DHT22;52842;52.666;5.202;2023-01-24T11:02:56;16.80;57.00
66057;DHT22;52842;52.666;5.202;2023-01-24T11:05:24;16.80;57.20
66057;DHT22;52842;52.666;5.202;2023-01-24T11:07:52;16.80;57.30
66057;DHT22;52842;52.666;5.202;2023-01-24T11:10:21;16.80;57.30
66057;DHT22;52842;52.666;5.202;2023-01-24T11:12:49;16.70;57.20
66057;DHT22;52842;52.666;5.202;2023-01-24T11:15:18;16.80;56.40
66057;DHT22;52842;52.666;5.202;2023-01-24T11:17:45;16.90;56.10
66057;DHT22;52842;52.666;5.202;2023-01-24T11:20:16;17.00;55.80
66057;DHT22;52842;52.666;5.202;2023-01-24T11:22:49;17.10;55.60
66057;DHT22;52842;52.666;5.202;2023-01-24T11:25:17;17.30;55.30
66057;DHT22;52842;52.666;5.202;2023-01-24T11:27:44;17.50;55.00
66057;DHT22;52842;52.666;5.202;2023-01-24T11:30:17;17.70;54.50
66057;DHT22;52842;52.666;5.202;2023-01-24T11:32:46;17.90;54.10
66057;DHT22;52842;52.666;5.202;2023-01-24T11:35:16;18.20;53.70
66057;DHT22;52842;52.666;5.202;2023-01-24T11:40:31;18.60;52.70
66057;DHT22;52842;52.666;5.202;2023-01-24T11:43:07;18.80;52.30
66057;DHT22;52842;52.666;5.202;2023-01-24T11:45:41;19.00;51.90
66057;DHT22;52842;52.666;5.202;2023-01-24T11:48:15;19.20;51.40
66057;DHT22;52842;52.666;5.202;2023-01-24T11:50:45;19.30;51.00
66057;DHT22;52842;52.666;5.202;2023-01-24T11:53:23;19.50;50.70
66057;DHT22;52842;52.666;5.202;2023-01-24T11:55:56;19.70;50.40
66057;DHT22;52842;52.666;5.202;2023-01-24T11:58:30;19.80;50.00
66057;DHT22;52842;52.666;5.202;2023-01-24T12:01:02;19.90;49.70
66057;DHT22;52842;52.666;5.202;2023-01-24T12:03:38;20.00;49.40
66057;DHT22;52842;52.666;5.202;2023-01-24T12:06:16;20.10;49.10
66057;DHT22;52842;52.666;5.202;2023-01-24T12:08:51;20.00;49.10
66057;DHT22;52842;52.666;5.202;2023-01-24T12:11:25;19.70;49.00
66057;DHT22;52842;52.666;5.202;2023-01-24T12:13:57;19.30;49.40
66057;DHT22;52842;52.666;5.202;2023-01-24T12:16:31;19.00;50.10
66057;DHT22;52842;52.666;5.202;2023-01-24T12:19:23;18.70;50.90
66057;DHT22;52842;52.666;5.202;2023-01-24T12:21:53;18.50;51.50
66057;DHT22;52842;52.666;5.202;2023-01-24T12:24:21;18.30;52.20
66057;DHT22;52842;52.666;5.202;2023-01-24T12:26:51;18.10;52.50
66057;DHT22;52842;52.666;5.202;2023-01-24T12:29:22;17.90;53.00
66057;DHT22;52842;52.666;5.202;2023-01-24T12:31:51;17.80;53.60
66057;DHT22;52842;52.666;5.202;2023-01-24T12:34:27;17.70;54.10
66057;DHT22;52842;52.666;5.202;2023-01-24T12:36:56;17.60;54.50
66057;DHT22;52842;52.666;5.202;2023-01-24T12:39:26;17.50;54.80
66057;DHT22;52842;52.666;5.202;2023-01-24T12:42:00;17.40;55.10
66057;DHT22;52842;52.666;5.202;2023-01-24T12:44:28;17.40;55.40
66057;DHT22;52842;52.666;5.202;2023-01-24T12:47:00;17.30;55.50
66057;DHT22;52842;52.666;5.202;2023-01-24T12:49:29;17.20;55.70
66057;DHT22;52842;52.666;5.202;2023-01-24T12:51:59;17.20;55.90
66057;DHT22;52842;52.666;5.202;2023-01-24T12:54:28;17.10;56.00
66057;DHT22;52842;52.666;5.202;2023-01-24T12:56:58;17.20;55.60
66057;DHT22;52842;52.666;5.202;2023-01-24T12:59:27;17.10;55.70
66057;DHT22;52842;52.666;5.202;2023-01-24T13:02:00;17.10;56.00
66057;DHT22;52842;52.666;5.202;2023-01-24T13:04:31;17.10;56.20
66057;DHT22;52842;52.666;5.202;2023-01-24T13:07:04;17.00;56.30
66057;DHT22;52842;52.666;5.202;2023-01-24T13:09:35;17.00;56.40
66057;DHT22;52842;52.666;5.202;2023-01-24T13:12:04;16.90;56.50
66057;DHT22;52842;52.666;5.202;2023-01-24T13:14:38;16.90;56.60
66057;DHT22;52842;52.666;5.202;2023-01-24T13:17:11;16.80;56.60
66057;DHT22;52842;52.666;5.202;2023-01-24T13:19:47;16.80;56.70
66057;DHT22;52842;52.666;5.202;2023-01-24T13:25:05;16.70;56.80
66057;DHT22;52842;52.666;5.202;2023-01-24T13:27:40;16.70;57.00
66057;DHT22;52842;52.666;5.202;2023-01-24T13:30:22;16.80;56.10
66057;DHT22;52842;52.666;5.202;2023-01-24T13:32:52;17.10;55.50
66057;DHT22;52842;52.666;5.202;2023-01-24T13:35:21;17.30;54.90
66057;DHT22;52842;52.666;5.202;2023-01-24T13:37:48;17.60;54.50
66057;DHT22;52842;52.666;5.202;2023-01-24T13:40:19;17.80;54.00
66057;DHT22;52842;52.666;5.202;2023-01-24T13:42:48;18.00;53.70
66057;DHT22;52842;52.666;5.202;2023-01-24T13:47:59;18.30;52.80
66057;DHT22;52842;52.666;5.202;2023-01-24T13:50:28;18.50;52.60
66057;DHT22;52842;52.666;5.202;2023-01-24T13:52:56;18.60;52.10
66057;DHT22;52842;52.666;5.202;2023-01-24T13:58:30;18.90;51.40
66057;DHT22;52842;52.666;5.202;2023-01-24T14:00:58;19.10;51.10
66057;DHT22;52842;52.666;5.202;2023-01-24T14:03:26;19.30;50.80
66057;DHT22;52842;52.666;5.202;2023-01-24T14:05:54;19.40;50.40
66057;DHT22;52842;52.666;5.202;2023-01-24T14:08:33;19.60;50.20
66057;DHT22;52842;52.666;5.202;2023-01-24T14:11:18;19.70;49.80
66057;DHT22;52842;52.666;5.202;2023-01-24T14:13:54;19.90;49.60
66057;DHT22;52842;52.666;5.202;2023-01-24T14:19:12;20.10;48.90
66057;DHT22;52842;52.666;5.202;2023-01-24T14:21:45;20.20;48.70
66057;DHT22;52842;52.666;5.202;2023-01-24T14:24:18;20.40;48.50
66057;DHT22;52842;52.666;5.202;2023-01-24T14:26:47;20.40;48.80
66057;DHT22;52842;52.666;5.202;2023-01-24T14:29:17;20.50;48.10
66057;DHT22;52842;52.666;5.202;2023-01-24T14:31:45;20.60;48.00
66057;DHT22;52842;52.666;5.202;2023-01-24T14:34:13;20.70;47.80
66057;DHT22;52842;52.666;5.202;2023-01-24T14:36:42;20.70;47.60
66057;DHT22;52842;52.666;5.202;2023-01-24T14:39:18;20.80;47.50
66057;DHT22;52842;52.666;5.202;2023-01-24T14:41:45;20.90;47.50
66057;DHT22;52842;52.666;5.202;2023-01-24T14:44:18;21.00;47.40
66057;DHT22;52842;52.666;5.202;2023-01-24T14:46:55;21.00;47.40
66057;DHT22;52842;52.666;5.202;2023-01-24T14:49:26;21.00;47.40
66057;DHT22;52842;52.666;5.202;2023-01-24T14:51:53;21.00;47.60
66057;DHT22;52842;52.666;5.202;2023-01-24T14:54:21;21.00;47.40
66057;DHT22;52842;52.666;5.202;2023-01-24T14:56:48;21.00;47.30
66057;DHT22;52842;52.666;5.202;2023-01-24T14:59:15;21.00;47.30
66057;DHT22;52842;52.666;5.202;2023-01-24T15:01:44;21.10;47.20
66057;DHT22;52842;52.666;5.202;2023-01-24T15:04:24;21.10;47.20
66057;DHT22;52842;52.666;5.202;2023-01-24T15:07:04;21.10;47.00
66057;DHT22;52842;52.666;5.202;2023-01-24T15:09:31;21.20;47.00
66057;DHT22;52842;52.666;5.202;2023-01-24T15:12:09;21.20;47.00
66057;DHT22;52842;52.666;5.202;2023-01-24T15:14:36;21.10;47.00
66057;DHT22;52842;52.666;5.202;2023-01-24T15:17:14;21.10;47.00
66057;DHT22;52842;52.666;5.202;2023-01-24T15:19:45;21.10;47.20
66057;DHT22;52842;52.666;5.202;2023-01-24T15:22:17;21.00;47.30
66057;DHT22;52842;52.666;5.202;2023-01-24T15:24:48;21.00;47.40
66057;DHT22;52842;52.666;5.202;2023-01-24T15:32:48;20.90;47.40
66057;DHT22;52842;52.666;5.202;2023-01-24T15:38:14;21.00;47.60
66057;DHT22;52842;52.666;5.202;2023-01-24T15:40:45;21.00;47.50
66057;DHT22;52842;52.666;5.202;2023-01-24T15:43:14;21.00;47.30
66057;DHT22;52842;52.666;5.202;2023-01-24T15:45:59;21.00;47.40
66057;DHT22;52842;52.666;5.202;2023-01-24T15:48:41;21.00;47.40
66057;DHT22;52842;52.666;5.202;2023-01-24T15:51:24;21.00;47.40
66057;DHT22;52842;52.666;5.202;2023-01-24T15:53:52;21.00;47.30
66057;DHT22;52842;52.666;5.202;2023-01-24T15:56:20;21.10;47.30
66057;DHT22;52842;52.666;5.202;2023-01-24T15:58:48;21.10;47.20
66057;DHT22;52842;52.666;5.202;2023-01-24T16:01:14;21.10;47.20
66057;DHT22;52842;52.666;5.202;2023-01-24T16:03:42;21.10;47.20
66057;DHT22;52842;52.666;5.202;2023-01-24T16:06:09;21.10;47.20
66057;DHT22;52842;52.666;5.202;2023-01-24T16:08:36;21.10;47.20
66057;DHT22;52842;52.666;5.202;2023-01-24T16:11:02;21.20;47.10
66057;DHT22;52842;52.666;5.202;2023-01-24T16:13:30;21.20;47.10
66057;DHT22;52842;52.666;5.202;2023-01-24T16:15:58;21.20;47.10
66057;DHT22;52842;52.666;5.202;2023-01-24T16:18:25;21.20;47.10
66057;DHT22;52842;52.666;5.202;2023-01-24T16:20:53;21.20;47.00
66057;DHT22;52842;52.666;5.202;2023-01-24T16:23:20;21.20;46.90
66057;DHT22;52842;52.666;5.202;2023-01-24T16:25:47;21.20;47.00
66057;DHT22;52842;52.666;5.202;2023-01-24T16:28:16;21.20;47.00
66057;DHT22;52842;52.666;5.202;2023-01-24T16:30:43;21.20;47.00
66057;DHT22;52842;52.666;5.202;2023-01-24T16:33:12;21.20;46.90
66057;DHT22;52842;52.666;5.202;2023-01-24T16:35:39;21.20;46.90
66057;DHT22;52842;52.666;5.202;2023-01-24T16:38:07;21.20;46.90
66057;DHT22;52842;52.666;5.202;2023-01-24T16:40:34;21.20;46.80
66057;DHT22;52842;52.666;5.202;2023-01-24T16:43:01;21.20;46.80
66057;DHT22;52842;52.666;5.202;2023-01-24T16:45:28;21.20;46.90
66057;DHT22;52842;52.666;5.202;2023-01-24T16:47:55;21.20;46.90
66057;DHT22;52842;52.666;5.202;2023-01-24T16:50:22;21.20;46.90
66057;DHT22;52842;52.666;5.202;2023-01-24T16:52:49;21.20;47.50
66057;DHT22;52842;52.666;5.202;2023-01-24T16:55:17;21.20;46.90
66057;DHT22;52842;52.666;5.202;2023-01-24T16:57:44;21.20;46.90
66057;DHT22;52842;52.666;5.202;2023-01-24T17:00:11;21.20;46.90
66057;DHT22;52842;52.666;5.202;2023-01-24T17:02:38;21.20;47.00
66057;DHT22;52842;52.666;5.202;2023-01-24T17:05:05;21.20;47.00
66057;DHT22;52842;52.666;5.202;2023-01-24T17:07:31;21.20;47.00
66057;DHT22;52842;52.666;5.202;2023-01-24T17:09:58;21.20;47.10
66057;DHT22;52842;52.666;5.202;2023-01-24T17:12:29;21.20;47.10
66057;DHT22;52842;52.666;5.202;2023-01-24T17:14:55;21.10;47.10
66057;DHT22;52842;52.666;5.202;2023-01-24T17:17:23;21.10;47.30
66057;DHT22;52842;52.666;5.202;2023-01-24T17:19:50;21.00;47.40
66057;DHT22;52842;52.666;5.202;2023-01-24T17:22:17;21.00;47.40
66057;DHT22;52842;52.666;5.202;2023-01-24T17:24:44;21.00;47.40
66057;DHT22;52842;52.666;5.202;2023-01-24T17:27:10;21.00;47.30
66057;DHT22;52842;52.666;5.202;2023-01-24T17:29:38;21.00;47.30
66057;DHT22;52842;52.666;5.202;2023-01-24T17:32:05;21.00;47.30
66057;DHT22;52842;52.666;5.202;2023-01-24T17:34:31;21.00;47.20
66057;DHT22;52842;52.666;5.202;2023-01-24T17:36:58;21.00;47.30
66057;DHT22;52842;52.666;5.202;2023-01-24T17:39:25;21.10;47.40
66057;DHT22;52842;52.666;5.202;2023-01-24T17:41:51;21.10;47.60
66057;DHT22;52842;52.666;5.202;2023-01-24T17:44:18;21.10;47.70
66057;DHT22;52842;52.666;5.202;2023-01-24T17:46:47;21.20;47.70
66057;DHT22;52842;52.666;5.202;2023-01-24T17:49:13;21.20;47.70
66057;DHT22;52842;52.666;5.202;2023-01-24T17:51:40;21.20;47.70
66057;DHT22;52842;52.666;5.202;2023-01-24T17:54:07;21.20;47.70
66057;DHT22;52842;52.666;5.202;2023-01-24T17:56:35;21.20;47.80
66057;DHT22;52842;52.666;5.202;2023-01-24T17:59:01;21.20;48.00
66057;DHT22;52842;52.666;5.202;2023-01-24T18:01:28;21.20;48.10
66057;DHT22;52842;52.666;5.202;2023-01-24T18:03:56;21.20;48.20
66057;DHT22;52842;52.666;5.202;2023-01-24T18:06:23;21.20;48.30
66057;DHT22;52842;52.666;5.202;2023-01-24T18:08:50;21.20;48.30
66057;DHT22;52842;52.666;5.202;2023-01-24T18:11:17;21.20;48.40
66057;DHT22;52842;52.666;5.202;2023-01-24T18:13:44;21.20;48.50
66057;DHT22;52842;52.666;5.202;2023-01-24T18:16:11;21.30;48.70
66057;DHT22;52842;52.666;5.202;2023-01-24T18:18:39;21.30;48.70
66057;DHT22;52842;52.666;5.202;2023-01-24T18:21:11;21.40;48.80
66057;DHT22;52842;52.666;5.202;2023-01-24T18:23:38;21.40;48.70
66057;DHT22;52842;52.666;5.202;2023-01-24T18:26:05;21.50;48.80
66057;DHT22;52842;52.666;5.202;2023-01-24T18:28:32;21.50;48.70
66057;DHT22;52842;52.666;5.202;2023-01-24T18:30:58;21.50;48.60
66057;DHT22;52842;52.666;5.202;2023-01-24T18:33:25;21.50;48.40
66057;DHT22;52842;52.666;5.202;2023-01-24T18:35:52;21.60;48.30
66057;DHT22;52842;52.666;5.202;2023-01-24T18:38:20;21.60;48.20
66057;DHT22;52842;52.666;5.202;2023-01-24T18:40:47;21.60;48.10
66057;DHT22;52842;52.666;5.202;2023-01-24T18:43:14;21.60;48.00
66057;DHT22;52842;52.666;5.202;2023-01-24T18:45:43;21.60;48.00
66057;DHT22;52842;52.666;5.202;2023-01-24T18:48:10;21.60;47.80
66057;DHT22;52842;52.666;5.202;2023-01-24T18:50:36;21.60;47.80
66057;DHT22;52842;52.666;5.202;2023-01-24T18:53:03;21.60;47.80
66057;DHT22;52842;52.666;5.202;2023-01-24T18:55:31;21.60;47.70
66057;DHT22;52842;52.666;5.202;2023-01-24T18:57:58;21.60;47.70
66057;DHT22;52842;52.666;5.202;2023-01-24T19:00:25;21.70;47.60
66057;DHT22;52842;52.666;5.202;2023-01-24T19:02:51;21.70;47.40
66057;DHT22;52842;52.666;5.202;2023-01-24T19:05:18;21.80;47.10
66057;DHT22;52842;52.666;5.202;2023-01-24T19:07:45;21.90;46.90
66057;DHT22;52842;52.666;5.202;2023-01-24T19:10:12;22.00;46.70
66057;DHT22;52842;52.666;5.202;2023-01-24T19:12:40;22.10;46.50
66057;DHT22;52842;52.666;5.202;2023-01-24T19:15:07;22.10;46.20
66057;DHT22;52842;52.666;5.202;2023-01-24T19:17:34;22.20;46.10
66057;DHT22;52842;52.666;5.202;2023-01-24T19:20:01;22.20;45.90
66057;DHT22;52842;52.666;5.202;2023-01-24T19:22:28;22.30;45.80
66057;DHT22;52842;52.666;5.202;2023-01-24T19:24:54;22.30;45.60
66057;DHT22;52842;52.666;5.202;2023-01-24T19:27:21;22.40;45.50
66057;DHT22;52842;52.666;5.202;2023-01-24T19:29:49;22.40;45.50
66057;DHT22;52842;52.666;5.202;2023-01-24T19:32:16;22.40;45.30
66057;DHT22;52842;52.666;5.202;2023-01-24T19:34:42;22.50;45.30
66057;DHT22;52842;52.666;5.202;2023-01-24T19:37:09;22.50;45.20
66057;DHT22;52842;52.666;5.202;2023-01-24T19:39:37;22.50;45.10
66057;DHT22;52842;52.666;5.202;2023-01-24T19:42:03;22.40;45.10
66057;DHT22;52842;52.666;5.202;2023-01-24T19:44:30;22.40;45.10
66057;DHT22;52842;52.666;5.202;2023-01-24T19:46:58;22.50;45.10
66057;DHT22;52842;52.666;5.202;2023-01-24T19:49:25;22.50;45.10
66057;DHT22;52842;52.666;5.202;2023-01-24T19:51:52;22.50;45.00
66057;DHT22;52842;52.666;5.202;2023-01-24T19:54:18;22.50;45.00
66057;DHT22;52842;52.666;5.202;2023-01-24T19:56:45;22.50;45.00
66057;DHT22;52842;52.666;5.202;2023-01-24T19:59:12;22.50;45.00
66057;DHT22;52842;52.666;5.202;2023-01-24T20:01:40;22.50;45.00
66057;DHT22;52842;52.666;5.202;2023-01-24T20:04:08;22.50;44.90
66057;DHT22;52842;52.666;5.202;2023-01-24T20:06:35;22.50;44.90
66057;DHT22;52842;52.666;5.202;2023-01-24T20:09:02;22.50;44.90
66057;DHT22;52842;52.666;5.202;2023-01-24T20:11:29;22.50;44.80
66057;DHT22;52842;52.666;5.202;2023-01-24T20:13:56;22.50;44.80
66057;DHT22;52842;52.666;5.202;2023-01-24T20:16:23;22.60;44.70
66057;DHT22;52842;52.666;5.202;2023-01-24T20:18:50;22.60;44.70
66057;DHT22;52842;52.666;5.202;2023-01-24T20:21:19;22.60;44.70
66057;DHT22;52842;52.666;5.202;2023-01-24T20:23:46;22.60;44.60
66057;DHT22;52842;52.666;5.202;2023-01-24T20:26:13;22.70;44.60
66057;DHT22;52842;52.666;5.202;2023-01-24T20:28:40;22.70;44.50
66057;DHT22;52842;52.666;5.202;2023-01-24T20:31:07;22.70;44.60
66057;DHT22;52842;52.666;5.202;2023-01-24T20:33:34;22.60;44.50
66057;DHT22;52842;52.666;5.202;2023-01-24T20:36:01;22.60;44.50
66057;DHT22;52842;52.666;5.202;2023-01-24T20:38:30;22.60;44.50
66057;DHT22;52842;52.666;5.202;2023-01-24T20:40:57;22.60;44.50
66057;DHT22;52842;52.666;5.202;2023-01-24T20:43:24;22.60;44.60
66057;DHT22;52842;52.666;5.202;2023-01-24T20:45:51;22.50;44.60
66057;DHT22;52842;52.666;5.202;2023-01-24T20:48:17;22.50;44.60
66057;DHT22;52842;52.666;5.202;2023-01-24T20:50:44;22.50;44.60
66057;DHT22;52842;52.666;5.202;2023-01-24T20:53:19;22.50;44.70
66057;DHT22;52842;52.666;5.202;2023-01-24T20:55:53;22.60;44.60
66057;DHT22;52842;52.666;5.202;2023-01-24T20:58:20;22.60;44.60
66057;DHT22;52842;52.666;5.202;2023-01-24T21:00:47;22.60;44.60
66057;DHT22;52842;52.666;5.202;2023-01-24T21:03:13;22.60;44.60
66057;DHT22;52842;52.666;5.202;2023-01-24T21:05:40;22.70;44.50
66057;DHT22;52842;52.666;5.202;2023-01-24T21:08:07;22.70;44.60
66057;DHT22;52842;52.666;5.202;2023-01-24T21:10:33;22.70;44.60
66057;DHT22;52842;52.666;5.202;2023-01-24T21:13:02;22.60;44.60
66057;DHT22;52842;52.666;5.202;2023-01-24T21:15:28;22.60;44.70
66057;DHT22;52842;52.666;5.202;2023-01-24T21:17:55;22.50;44.70
66057;DHT22;52842;52.666;5.202;2023-01-24T21:20:22;22.50;45.40
66057;DHT22;52842;52.666;5.202;2023-01-24T21:22:49;22.50;44.90
66057;DHT22;52842;52.666;5.202;2023-01-24T21:25:16;22.50;44.90
66057;DHT22;52842;52.666;5.202;2023-01-24T21:27:43;22.40;44.80
66057;DHT22;52842;52.666;5.202;2023-01-24T21:30:11;22.40;44.90
66057;DHT22;52842;52.666;5.202;2023-01-24T21:32:38;22.40;44.80
66057;DHT22;52842;52.666;5.202;2023-01-24T21:35:05;22.40;44.80
66057;DHT22;52842;52.666;5.202;2023-01-24T21:37:32;22.40;44.70
66057;DHT22;52842;52.666;5.202;2023-01-24T21:39:58;22.40;44.70
66057;DHT22;52842;52.666;5.202;2023-01-24T21:42:25;22.40;44.60
66057;DHT22;52842;52.666;5.202;2023-01-24T21:44:52;22.40;44.50
66057;DHT22;52842;52.666;5.202;2023-01-24T21:47:20;22.40;44.40
66057;DHT22;52842;52.666;5.202;2023-01-24T21:49:46;22.40;44.40
66057;DHT22;52842;52.666;5.202;2023-01-24T21:52:13;22.30;44.40
66057;DHT22;52842;52.666;5.202;2023-01-24T21:54:39;22.30;44.40
66057;DHT22;52842;52.666;5.202;2023-01-24T21:57:08;22.30;44.40
66057;DHT22;52842;52.666;5.202;2023-01-24T21:59:52;22.30;44.40
66057;DHT22;52842;52.666;5.202;2023-01-24T22:02:21;22.30;44.50
66057;DHT22;52842;52.666;5.202;2023-01-24T22:04:47;22.30;44.40
66057;DHT22;52842;52.666;5.202;2023-01-24T22:07:16;22.30;44.30
66057;DHT22;52842;52.666;5.202;2023-01-24T22:09:43;22.30;44.30
66057;DHT22;52842;52.666;5.202;2023-01-24T22:12:10;22.30;44.20
66057;DHT22;52842;52.666;5.202;2023-01-24T22:14:37;22.30;44.20
66057;DHT22;52842;52.666;5.202;2023-01-24T22:17:05;22.30;44.20
66057;DHT22;52842;52.666;5.202;2023-01-24T22:19:38;22.30;44.20
66057;DHT22;52842;52.666;5.202;2023-01-24T22:22:11;22.30;44.20
66057;DHT22;52842;52.666;5.202;2023-01-24T22:24:44;22.20;44.20
66057;DHT22;52842;52.666;5.202;2023-01-24T22:27:14;22.20;44.20
66057;DHT22;52842;52.666;5.202;2023-01-24T22:29:41;22.30;44.10
66057;DHT22;52842;52.666;5.202;2023-01-24T22:32:09;22.30;44.10
66057;DHT22;52842;52.666;5.202;2023-01-24T22:34:37;22.30;44.00
66057;DHT22;52842;52.666;5.202;2023-01-24T22:37:04;22.30;43.90
66057;DHT22;52842;52.666;5.202;2023-01-24T22:39:34;22.30;43.90
66057;DHT22;52842;52.666;5.202;2023-01-24T22:42:01;22.30;43.90
66057;DHT22;52842;52.666;5.202;2023-01-24T22:44:28;22.30;43.90
66057;DHT22;52842;52.666;5.202;2023-01-24T22:46:55;22.30;43.90
66057;DHT22;52842;52.666;5.202;2023-01-24T22:49:21;22.30;43.80
66057;DHT22;52842;52.666;5.202;2023-01-24T22:51:50;22.20;43.80
66057;DHT22;52842;52.666;5.202;2023-01-24T22:54:16;22.20;43.80
66057;DHT22;52842;52.666;5.202;2023-01-24T22:56:43;22.20;43.90
66057;DHT22;52842;52.666;5.202;2023-01-24T22:59:10;22.20;43.80
66057;DHT22;52842;52.666;5.202;2023-01-24T23:01:36;22.10;43.80
66057;DHT22;52842;52.666;5.202;2023-01-24T23:04:04;22.10;43.90
66057;DHT22;52842;52.666;5.202;2023-01-24T23:06:31;22.10;44.00
66057;DHT22;52842;52.666;5.202;2023-01-24T23:08:59;22.00;44.00
66057;DHT22;52842;52.666;5.202;2023-01-24T23:11:26;22.00;44.10
66057;DHT22;52842;52.666;5.202;2023-01-24T23:13:52;22.00;44.10
66057;DHT22;52842;52.666;5.202;2023-01-24T23:16:37;22.00;44.10
66057;DHT22;52842;52.666;5.202;2023-01-24T23:19:05;22.00;44.20
66057;DHT22;52842;52.666;5.202;2023-01-24T23:22:09;22.00;44.10
66057;DHT22;52842;52.666;5.202;2023-01-24T23:24:37;22.00;44.10
66057;DHT22;52842;52.666;5.202;2023-01-24T23:27:04;22.00;44.10
66057;DHT22;52842;52.666;5.202;2023-01-24T23:29:37;21.90;44.70
66057;DHT22;52842;52.666;5.202;2023-01-24T23:32:08;22.00;44.20
66057;DHT22;52842;52.666;5.202;2023-01-24T23:34:43;21.90;44.10
66057;DHT22;52842;52.666;5.202;2023-01-24T23:37:10;21.90;44.10
66057;DHT22;52842;52.666;5.202;2023-01-24T23:39:38;21.90;44.10
66057;DHT22;52842;52.666;5.202;2023-01-24T23:42:05;21.90;44.10
66057;DHT22;52842;52.666;5.202;2023-01-24T23:44:32;21.90;44.20
66057;DHT22;52842;52.666;5.202;2023-01-24T23:46:58;21.90;44.00
66057;DHT22;52842;52.666;5.202;2023-01-24T23:49:25;21.90;44.00
66057;DHT22;52842;52.666;5.202;2023-01-24T23:51:52;21.90;44.00
66057;DHT22;52842;52.666;5.202;2023-01-24T23:54:18;22.00;43.90
66057;DHT22;52842;52.666;5.202;2023-01-24T23:56:46;22.00;44.00
66057;DHT22;52842;52.666;5.202;2023-01-24T23:59:13;21.90;43.90
